sensor_id;sensor_type;location;lat;lon;timestamp;P1;durP1;ratioP1;P2;durP2;ratioP2
22697;SDS011;11516;51.612;7.510;2023-08-06T00:02:12;0.80;;;0.77;;
22697;SDS011;11516;51.612;7.510;2023-08-06T00:04:37;1.07;;;0.97;;
22697;SDS011;11516;51.612;7.510;2023-08-06T00:07:03;0.90;;;0.40;;
22697;SDS011;11516;51.612;7.510;2023-08-06T00:09:29;0.80;;;0.60;;
22697;SDS011;11516;51.612;7.510;2023-08-06T00:11:54;1.20;;;0.80;;
22697;SDS011;11516;51.612;7.510;2023-08-06T00:14:20;0.47;;;0.47;;
22697;SDS011;11516;51.612;7.510;2023-08-06T00:16:45;0.70;;;0.60;;
22697;SDS011;11516;51.612;7.510;2023-08-06T00:19:11;1.00;;;0.70;;
22697;SDS011;11516;51.612;7.510;2023-08-06T00:21:37;1.60;;;1.00;;
22697;SDS011;11516;51.612;7.510;2023-08-06T00:24:02;7.90;;;1.23;;
22697;SDS011;11516;51.612;7.510;2023-08-06T00:26:28;1.70;;;1.25;;
22697;SDS011;11516;51.612;7.510;2023-08-06T00:28:54;1.00;;;0.80;;
22697;SDS011;11516;51.612;7.510;2023-08-06T00:31:19;0.50;;;0.40;;
22697;SDS011;11516;51.612;7.510;2023-08-06T00:33:45;0.63;;;0.63;;
22697;SDS011;11516;51.612;7.510;2023-08-06T00:36:10;0.53;;;0.53;;
22697;SDS011;11516;51.612;7.510;2023-08-06T00:38:36;2.00;;;1.63;;
22697;SDS011;11516;51.612;7.510;2023-08-06T00:41:01;0.17;;;0.17;;
22697;SDS011;11516;51.612;7.510;2023-08-06T00:43:27;0.10;;;0.10;;
22697;SDS011;11516;51.612;7.510;2023-08-06T00:45:52;0.83;;;0.83;;
22697;SDS011;11516;51.612;7.510;2023-08-06T00:48:18;0.80;;;0.80;;
22697;SDS011;11516;51.612;7.510;2023-08-06T00:50:44;0.77;;;0.77;;
22697;SDS011;11516;51.612;7.510;2023-08-06T00:53:10;3.25;;;1.27;;
22697;SDS011;11516;51.612;7.510;2023-08-06T00:55:36;0.30;;;0.30;;
22697;SDS011;11516;51.612;7.510;2023-08-06T00:58:01;0.63;;;0.60;;
22697;SDS011;11516;51.612;7.510;2023-08-06T01:00:27;1.30;;;0.40;;
22697;SDS011;11516;51.612;7.510;2023-08-06T01:02:55;0.63;;;0.63;;
22697;SDS011;11516;51.612;7.510;2023-08-06T01:05:32;1.30;;;0.50;;
22697;SDS011;11516;51.612;7.510;2023-08-06T01:10:49;0.20;;;0.20;;
22697;SDS011;11516;51.612;7.510;2023-08-06T01:13:44;0.60;;;0.60;;
22697;SDS011;11516;51.612;7.510;2023-08-06T01:16:11;0.95;;;0.60;;
22697;SDS011;11516;51.612;7.510;2023-08-06T01:18:42;0.80;;;0.40;;
22697;SDS011;11516;51.612;7.510;2023-08-06T01:21:11;0.60;;;0.60;;
22697;SDS011;11516;51.612;7.510;2023-08-06T01:23:39;0.70;;;0.70;;
22697;SDS011;11516;51.612;7.510;2023-08-06T01:26:18;0.55;;;0.30;;
22697;SDS011;11516;51.612;7.510;2023-08-06T01:29:03;1.08;;;0.93;;
22697;SDS011;11516;51.612;7.510;2023-08-06T01:31:37;0.60;;;0.52;;
22697;SDS011;11516;51.612;7.510;2023-08-06T01:34:08;0.20;;;0.20;;
22697;SDS011;11516;51.612;7.510;2023-08-06T01:36:38;0.17;;;0.17;;
22697;SDS011;11516;51.612;7.510;2023-08-06T01:39:05;0.40;;;0.40;;
22697;SDS011;11516;51.612;7.510;2023-08-06T01:41:30;0.33;;;0.33;;
22697;SDS011;11516;51.612;7.510;2023-08-06T01:43:56;0.30;;;0.30;;
22697;SDS011;11516;51.612;7.510;2023-08-06T01:46:21;0.23;;;0.23;;
22697;SDS011;11516;51.612;7.510;2023-08-06T01:48:47;0.13;;;0.13;;
22697;SDS011;11516;51.612;7.510;2023-08-06T01:51:13;0.60;;;0.60;;
22697;SDS011;11516;51.612;7.510;2023-08-06T01:53:38;0.43;;;0.43;;
22697;SDS011;11516;51.612;7.510;2023-08-06T01:56:04;0.70;;;0.30;;
22697;SDS011;11516;51.612;7.510;2023-08-06T01:58:29;0.30;;;0.30;;
22697;SDS011;11516;51.612;7.510;2023-08-06T02:00:55;0.40;;;0.40;;
22697;SDS011;11516;51.612;7.510;2023-08-06T02:03:20;0.30;;;0.30;;
22697;SDS011;11516;51.612;7.510;2023-08-06T02:05:48;0.10;;;0.10;;
22697;SDS011;11516;51.612;7.510;2023-08-06T02:08:29;0.30;;;0.20;;
22697;SDS011;11516;51.612;7.510;2023-08-06T02:10:55;2.10;;;0.70;;
22697;SDS011;11516;51.612;7.510;2023-08-06T02:13:20;3.80;;;1.10;;
22697;SDS011;11516;51.612;7.510;2023-08-06T02:15:46;0.77;;;0.68;;
22697;SDS011;11516;51.612;7.510;2023-08-06T02:18:14;0.30;;;0.30;;
22697;SDS011;11516;51.612;7.510;2023-08-06T02:20:41;0.40;;;0.40;;
22697;SDS011;11516;51.612;7.510;2023-08-06T02:23:06;0.82;;;0.75;;
22697;SDS011;11516;51.612;7.510;2023-08-06T02:25:32;0.70;;;0.52;;
22697;SDS011;11516;51.612;7.510;2023-08-06T02:27:58;1.50;;;0.70;;
22697;SDS011;11516;51.612;7.510;2023-08-06T02:30:23;1.10;;;1.00;;
22697;SDS011;11516;51.612;7.510;2023-08-06T02:32:49;0.10;;;0.10;;
22697;SDS011;11516;51.612;7.510;2023-08-06T02:35:14;0.30;;;0.30;;
22697;SDS011;11516;51.612;7.510;2023-08-06T02:37:40;0.07;;;0.07;;
22697;SDS011;11516;51.612;7.510;2023-08-06T02:40:05;0.40;;;0.30;;
22697;SDS011;11516;51.612;7.510;2023-08-06T02:42:31;0.80;;;0.60;;
22697;SDS011;11516;51.612;7.510;2023-08-06T02:47:52;0.30;;;0.27;;
22697;SDS011;11516;51.612;7.510;2023-08-06T02:50:17;0.27;;;0.27;;
22697;SDS011;11516;51.612;7.510;2023-08-06T02:52:43;0.30;;;0.30;;
22697;SDS011;11516;51.612;7.510;2023-08-06T02:55:09;0.20;;;0.20;;
22697;SDS011;11516;51.612;7.510;2023-08-06T02:57:34;0.20;;;0.20;;
22697;SDS011;11516;51.612;7.510;2023-08-06T03:00:00;0.50;;;0.50;;
22697;SDS011;11516;51.612;7.510;2023-08-06T03:02:25;0.70;;;0.60;;
22697;SDS011;11516;51.612;7.510;2023-08-06T03:04:51;0.07;;;0.07;;
22697;SDS011;11516;51.612;7.510;2023-08-06T03:07:16;0.10;;;0.10;;
22697;SDS011;11516;51.612;7.510;2023-08-06T03:09:42;1.33;;;0.63;;
22697;SDS011;11516;51.612;7.510;2023-08-06T03:12:07;0.17;;;0.17;;
22697;SDS011;11516;51.612;7.510;2023-08-06T03:14:33;0.30;;;0.30;;
22697;SDS011;11516;51.612;7.510;2023-08-06T03:16:59;0.40;;;0.40;;
22697;SDS011;11516;51.612;7.510;2023-08-06T03:19:24;0.37;;;0.37;;
22697;SDS011;11516;51.612;7.510;2023-08-06T03:21:50;0.43;;;0.27;;
22697;SDS011;11516;51.612;7.510;2023-08-06T03:24:15;0.07;;;0.07;;
22697;SDS011;11516;51.612;7.510;2023-08-06T03:26:41;0.80;;;0.70;;
22697;SDS011;11516;51.612;7.510;2023-08-06T03:29:06;0.30;;;0.30;;
22697;SDS011;11516;51.612;7.510;2023-08-06T03:31:32;0.08;;;0.08;;
22697;SDS011;11516;51.612;7.510;2023-08-06T03:33:57;0.15;;;0.15;;
22697;SDS011;11516;51.612;7.510;2023-08-06T03:36:23;0.30;;;0.30;;
22697;SDS011;11516;51.612;7.510;2023-08-06T03:38:48;0.30;;;0.30;;
22697;SDS011;11516;51.612;7.510;2023-08-06T03:41:14;0.07;;;0.07;;
22697;SDS011;11516;51.612;7.510;2023-08-06T03:43:39;0.20;;;0.20;;
22697;SDS011;11516;51.612;7.510;2023-08-06T03:46:05;0.80;;;0.40;;
22697;SDS011;11516;51.612;7.510;2023-08-06T03:48:30;0.10;;;0.10;;
22697;SDS011;11516;51.612;7.510;2023-08-06T03:50:56;6.10;;;0.40;;
22697;SDS011;11516;51.612;7.510;2023-08-06T03:53:22;0.60;;;0.50;;
22697;SDS011;11516;51.612;7.510;2023-08-06T03:55:47;0.77;;;0.57;;
22697;SDS011;11516;51.612;7.510;2023-08-06T03:58:13;0.20;;;0.20;;
22697;SDS011;11516;51.612;7.510;2023-08-06T04:00:38;0.30;;;0.30;;
22697;SDS011;11516;51.612;7.510;2023-08-06T04:03:04;0.00;;;0.00;;
22697;SDS011;11516;51.612;7.510;2023-08-06T04:05:31;0.57;;;0.30;;
22697;SDS011;11516;51.612;7.510;2023-08-06T04:07:57;0.60;;;0.60;;
22697;SDS011;11516;51.612;7.510;2023-08-06T04:10:23;0.30;;;0.30;;
22697;SDS011;11516;51.612;7.510;2023-08-06T04:12:48;0.37;;;0.37;;
22697;SDS011;11516;51.612;7.510;2023-08-06T04:15:14;0.88;;;0.80;;
22697;SDS011;11516;51.612;7.510;2023-08-06T04:17:39;2.22;;;0.57;;
22697;SDS011;11516;51.612;7.510;2023-08-06T04:20:05;0.70;;;0.60;;
22697;SDS011;11516;51.612;7.510;2023-08-06T04:22:31;0.60;;;0.60;;
22697;SDS011;11516;51.612;7.510;2023-08-06T04:24:57;0.13;;;0.13;;
22697;SDS011;11516;51.612;7.510;2023-08-06T04:27:22;0.77;;;0.17;;
22697;SDS011;11516;51.612;7.510;2023-08-06T04:29:48;0.30;;;0.30;;
22697;SDS011;11516;51.612;7.510;2023-08-06T04:32:13;0.07;;;0.07;;
22697;SDS011;11516;51.612;7.510;2023-08-06T04:34:39;0.87;;;0.67;;
22697;SDS011;11516;51.612;7.510;2023-08-06T04:37:04;1.20;;;0.60;;
22697;SDS011;11516;51.612;7.510;2023-08-06T04:39:30;1.00;;;0.33;;
22697;SDS011;11516;51.612;7.510;2023-08-06T04:41:56;0.10;;;0.00;;
22697;SDS011;11516;51.612;7.510;2023-08-06T04:44:25;0.20;;;0.20;;
22697;SDS011;11516;51.612;7.510;2023-08-06T04:46:50;0.55;;;0.45;;
22697;SDS011;11516;51.612;7.510;2023-08-06T04:49:17;0.60;;;0.08;;
22697;SDS011;11516;51.612;7.510;2023-08-06T04:51:43;0.40;;;0.40;;
22697;SDS011;11516;51.612;7.510;2023-08-06T04:54:08;0.87;;;0.87;;
22697;SDS011;11516;51.612;7.510;2023-08-06T04:56:34;0.40;;;0.30;;
22697;SDS011;11516;51.612;7.510;2023-08-06T04:59:00;0.40;;;0.40;;
22697;SDS011;11516;51.612;7.510;2023-08-06T05:01:25;0.20;;;0.20;;
22697;SDS011;11516;51.612;7.510;2023-08-06T05:03:51;0.10;;;0.10;;
22697;SDS011;11516;51.612;7.510;2023-08-06T05:06:16;0.30;;;0.20;;
22697;SDS011;11516;51.612;7.510;2023-08-06T05:08:42;0.60;;;0.60;;
22697;SDS011;11516;51.612;7.510;2023-08-06T05:11:09;0.77;;;0.70;;
22697;SDS011;11516;51.612;7.510;2023-08-06T05:13:34;1.25;;;0.65;;
22697;SDS011;11516;51.612;7.510;2023-08-06T05:16:00;0.65;;;0.65;;
22697;SDS011;11516;51.612;7.510;2023-08-06T05:18:25;0.32;;;0.30;;
22697;SDS011;11516;51.612;7.510;2023-08-06T05:20:51;0.20;;;0.20;;
22697;SDS011;11516;51.612;7.510;2023-08-06T05:23:16;1.38;;;0.60;;
22697;SDS011;11516;51.612;7.510;2023-08-06T05:25:42;1.00;;;0.80;;
22697;SDS011;11516;51.612;7.510;2023-08-06T05:28:07;1.13;;;0.60;;
22697;SDS011;11516;51.612;7.510;2023-08-06T05:30:33;0.10;;;0.10;;
22697;SDS011;11516;51.612;7.510;2023-08-06T05:33:02;1.17;;;0.63;;
22697;SDS011;11516;51.612;7.510;2023-08-06T05:35:27;0.27;;;0.27;;
22697;SDS011;11516;51.612;7.510;2023-08-06T05:37:53;1.40;;;1.00;;
22697;SDS011;11516;51.612;7.510;2023-08-06T05:40:18;0.40;;;0.40;;
22697;SDS011;11516;51.612;7.510;2023-08-06T05:42:44;1.00;;;0.90;;
22697;SDS011;11516;51.612;7.510;2023-08-06T05:45:09;1.63;;;0.87;;
22697;SDS011;11516;51.612;7.510;2023-08-06T05:47:35;0.60;;;0.60;;
22697;SDS011;11516;51.612;7.510;2023-08-06T05:50:01;0.87;;;0.67;;
22697;SDS011;11516;51.612;7.510;2023-08-06T05:52:26;0.30;;;0.30;;
22697;SDS011;11516;51.612;7.510;2023-08-06T05:54:52;0.80;;;0.43;;
22697;SDS011;11516;51.612;7.510;2023-08-06T05:57:17;0.20;;;0.20;;
22697;SDS011;11516;51.612;7.510;2023-08-06T05:59:43;0.30;;;0.30;;
22697;SDS011;11516;51.612;7.510;2023-08-06T06:02:08;0.30;;;0.30;;
22697;SDS011;11516;51.612;7.510;2023-08-06T06:04:34;1.03;;;0.93;;
22697;SDS011;11516;51.612;7.510;2023-08-06T06:06:59;0.43;;;0.37;;
22697;SDS011;11516;51.612;7.510;2023-08-06T06:09:25;0.40;;;0.40;;
22697;SDS011;11516;51.612;7.510;2023-08-06T06:11:51;0.20;;;0.20;;
22697;SDS011;11516;51.612;7.510;2023-08-06T06:14:17;0.80;;;0.80;;
22697;SDS011;11516;51.612;7.510;2023-08-06T06:16:43;1.40;;;0.45;;
22697;SDS011;11516;51.612;7.510;2023-08-06T06:19:08;0.20;;;0.20;;
22697;SDS011;11516;51.612;7.510;2023-08-06T06:21:36;0.73;;;0.40;;
22697;SDS011;11516;51.612;7.510;2023-08-06T06:24:03;0.20;;;0.20;;
22697;SDS011;11516;51.612;7.510;2023-08-06T06:26:28;0.95;;;0.50;;
22697;SDS011;11516;51.612;7.510;2023-08-06T06:28:55;1.15;;;0.57;;
22697;SDS011;11516;51.612;7.510;2023-08-06T06:31:20;0.20;;;0.20;;
22697;SDS011;11516;51.612;7.510;2023-08-06T06:33:46;0.73;;;0.65;;
22697;SDS011;11516;51.612;7.510;2023-08-06T06:39:04;0.40;;;0.35;;
22697;SDS011;11516;51.612;7.510;2023-08-06T06:41:29;0.17;;;0.17;;
22697;SDS011;11516;51.612;7.510;2023-08-06T06:43:56;0.20;;;0.20;;
22697;SDS011;11516;51.612;7.510;2023-08-06T06:46:22;0.40;;;0.30;;
22697;SDS011;11516;51.612;7.510;2023-08-06T06:48:47;0.08;;;0.05;;
22697;SDS011;11516;51.612;7.510;2023-08-06T06:51:13;0.20;;;0.20;;
22697;SDS011;11516;51.612;7.510;2023-08-06T06:53:38;0.60;;;0.60;;
22697;SDS011;11516;51.612;7.510;2023-08-06T06:56:09;0.25;;;0.25;;
22697;SDS011;11516;51.612;7.510;2023-08-06T06:58:35;0.38;;;0.38;;
22697;SDS011;11516;51.612;7.510;2023-08-06T07:01:00;0.20;;;0.20;;
22697;SDS011;11516;51.612;7.510;2023-08-06T07:03:26;0.30;;;0.30;;
22697;SDS011;11516;51.612;7.510;2023-08-06T07:05:56;0.22;;;0.22;;
22697;SDS011;11516;51.612;7.510;2023-08-06T07:08:23;0.10;;;0.10;;
22697;SDS011;11516;51.612;7.510;2023-08-06T07:10:49;0.30;;;0.30;;
22697;SDS011;11516;51.612;7.510;2023-08-06T07:13:14;0.37;;;0.30;;
22697;SDS011;11516;51.612;7.510;2023-08-06T07:15:41;0.20;;;0.20;;
22697;SDS011;11516;51.612;7.510;2023-08-06T07:18:07;0.67;;;0.67;;
22697;SDS011;11516;51.612;7.510;2023-08-06T07:20:33;0.60;;;0.40;;
22697;SDS011;11516;51.612;7.510;2023-08-06T07:22:59;0.30;;;0.30;;
22697;SDS011;11516;51.612;7.510;2023-08-06T07:25:25;0.20;;;0.20;;
22697;SDS011;11516;51.612;7.510;2023-08-06T07:27:51;1.03;;;0.20;;
22697;SDS011;11516;51.612;7.510;2023-08-06T07:30:16;0.30;;;0.30;;
22697;SDS011;11516;51.612;7.510;2023-08-06T07:32:42;0.10;;;0.10;;
22697;SDS011;11516;51.612;7.510;2023-08-06T07:35:08;0.17;;;0.17;;
22697;SDS011;11516;51.612;7.510;2023-08-06T07:37:37;0.30;;;0.30;;
22697;SDS011;11516;51.612;7.510;2023-08-06T07:40:03;0.27;;;0.27;;
22697;SDS011;11516;51.612;7.510;2023-08-06T07:42:29;0.25;;;0.25;;
22697;SDS011;11516;51.612;7.510;2023-08-06T07:44:55;0.70;;;0.30;;
22697;SDS011;11516;51.612;7.510;2023-08-06T07:47:22;0.20;;;0.20;;
22697;SDS011;11516;51.612;7.510;2023-08-06T07:49:48;0.28;;;0.28;;
22697;SDS011;11516;51.612;7.510;2023-08-06T07:52:14;0.40;;;0.40;;
22697;SDS011;11516;51.612;7.510;2023-08-06T07:54:39;0.43;;;0.37;;
22697;SDS011;11516;51.612;7.510;2023-08-06T07:57:05;0.30;;;0.30;;
22697;SDS011;11516;51.612;7.510;2023-08-06T07:59:31;0.70;;;0.50;;
22697;SDS011;11516;51.612;7.510;2023-08-06T08:01:57;0.10;;;0.10;;
22697;SDS011;11516;51.612;7.510;2023-08-06T08:04:23;0.30;;;0.30;;
22697;SDS011;11516;51.612;7.510;2023-08-06T08:06:49;0.20;;;0.20;;
22697;SDS011;11516;51.612;7.510;2023-08-06T08:09:15;0.40;;;0.40;;
22697;SDS011;11516;51.612;7.510;2023-08-06T08:11:40;0.20;;;0.20;;
22697;SDS011;11516;51.612;7.510;2023-08-06T08:14:06;0.10;;;0.10;;
22697;SDS011;11516;51.612;7.510;2023-08-06T08:16:32;0.10;;;0.10;;
22697;SDS011;11516;51.612;7.510;2023-08-06T08:18:58;1.10;;;0.25;;
22697;SDS011;11516;51.612;7.510;2023-08-06T08:21:23;0.17;;;0.17;;
22697;SDS011;11516;51.612;7.510;2023-08-06T08:23:52;0.80;;;0.22;;
22697;SDS011;11516;51.612;7.510;2023-08-06T08:26:20;3.70;;;0.60;;
22697;SDS011;11516;51.612;7.510;2023-08-06T08:28:46;0.43;;;0.43;;
22697;SDS011;11516;51.612;7.510;2023-08-06T08:31:11;0.20;;;0.20;;
22697;SDS011;11516;51.612;7.510;2023-08-06T08:33:37;0.50;;;0.50;;
22697;SDS011;11516;51.612;7.510;2023-08-06T08:36:03;0.13;;;0.13;;
22697;SDS011;11516;51.612;7.510;2023-08-06T08:38:29;0.43;;;0.43;;
22697;SDS011;11516;51.612;7.510;2023-08-06T08:40:55;0.15;;;0.15;;
22697;SDS011;11516;51.612;7.510;2023-08-06T08:43:21;0.50;;;0.50;;
22697;SDS011;11516;51.612;7.510;2023-08-06T08:45:49;0.50;;;0.32;;
22697;SDS011;11516;51.612;7.510;2023-08-06T08:48:16;0.75;;;0.75;;
22697;SDS011;11516;51.612;7.510;2023-08-06T08:50:44;0.43;;;0.43;;
22697;SDS011;11516;51.612;7.510;2023-08-06T08:53:11;0.75;;;0.45;;
22697;SDS011;11516;51.612;7.510;2023-08-06T08:55:38;0.90;;;0.60;;
22697;SDS011;11516;51.612;7.510;2023-08-06T08:58:05;0.50;;;0.50;;
22697;SDS011;11516;51.612;7.510;2023-08-06T09:00:30;0.70;;;0.70;;
22697;SDS011;11516;51.612;7.510;2023-08-06T09:02:56;0.55;;;0.50;;
22697;SDS011;11516;51.612;7.510;2023-08-06T09:05:23;0.50;;;0.43;;
22697;SDS011;11516;51.612;7.510;2023-08-06T09:07:53;0.40;;;0.28;;
22697;SDS011;11516;51.612;7.510;2023-08-06T09:10:19;0.68;;;0.68;;
22697;SDS011;11516;51.612;7.510;2023-08-06T09:12:50;1.20;;;0.70;;
22697;SDS011;11516;51.612;7.510;2023-08-06T09:15:18;0.40;;;0.40;;
22697;SDS011;11516;51.612;7.510;2023-08-06T09:17:45;0.50;;;0.17;;
22697;SDS011;11516;51.612;7.510;2023-08-06T09:20:13;1.50;;;0.90;;
22697;SDS011;11516;51.612;7.510;2023-08-06T09:22:40;0.25;;;0.22;;
22697;SDS011;11516;51.612;7.510;2023-08-06T09:25:06;4.15;;;1.45;;
22697;SDS011;11516;51.612;7.510;2023-08-06T09:27:35;0.63;;;0.63;;
22697;SDS011;11516;51.612;7.510;2023-08-06T09:30:02;0.50;;;0.30;;
22697;SDS011;11516;51.612;7.510;2023-08-06T09:32:38;0.30;;;0.30;;
22697;SDS011;11516;51.612;7.510;2023-08-06T09:35:16;0.00;;;0.00;;
22697;SDS011;11516;51.612;7.510;2023-08-06T09:37:43;3.70;;;0.50;;
22697;SDS011;11516;51.612;7.510;2023-08-06T09:40:25;0.17;;;0.17;;
22697;SDS011;11516;51.612;7.510;2023-08-06T09:42:52;0.20;;;0.20;;
22697;SDS011;11516;51.612;7.510;2023-08-06T09:45:18;1.00;;;1.00;;
22697;SDS011;11516;51.612;7.510;2023-08-06T09:47:44;3.10;;;1.00;;
22697;SDS011;11516;51.612;7.510;2023-08-06T09:50:18;0.53;;;0.33;;
22697;SDS011;11516;51.612;7.510;2023-08-06T09:52:45;0.50;;;0.50;;
22697;SDS011;11516;51.612;7.510;2023-08-06T09:55:12;0.10;;;0.10;;
22697;SDS011;11516;51.612;7.510;2023-08-06T09:57:42;0.27;;;0.27;;
22697;SDS011;11516;51.612;7.510;2023-08-06T10:00:08;0.05;;;0.05;;
22697;SDS011;11516;51.612;7.510;2023-08-06T10:02:37;0.57;;;0.32;;
22697;SDS011;11516;51.612;7.510;2023-08-06T10:05:04;0.20;;;0.20;;
22697;SDS011;11516;51.612;7.510;2023-08-06T10:07:33;0.40;;;0.32;;
22697;SDS011;11516;51.612;7.510;2023-08-06T10:09:59;0.10;;;0.10;;
22697;SDS011;11516;51.612;7.510;2023-08-06T10:12:25;0.30;;;0.30;;
22697;SDS011;11516;51.612;7.510;2023-08-06T10:14:54;4.70;;;1.10;;
22697;SDS011;11516;51.612;7.510;2023-08-06T10:17:23;0.20;;;0.20;;
22697;SDS011;11516;51.612;7.510;2023-08-06T10:19:52;2.75;;;1.00;;
22697;SDS011;11516;51.612;7.510;2023-08-06T10:22:20;0.10;;;0.10;;
22697;SDS011;11516;51.612;7.510;2023-08-06T10:27:19;0.15;;;0.15;;
22697;SDS011;11516;51.612;7.510;2023-08-06T10:32:52;0.10;;;0.10;;
22697;SDS011;11516;51.612;7.510;2023-08-06T10:36:01;0.40;;;0.40;;
22697;SDS011;11516;51.612;7.510;2023-08-06T10:38:09;0.20;;;0.20;;
22697;SDS011;11516;51.612;7.510;2023-08-06T10:41:03;0.30;;;0.20;;
22697;SDS011;11516;51.612;7.510;2023-08-06T10:45:59;0.10;;;0.10;;
22697;SDS011;11516;51.612;7.510;2023-08-06T10:48:35;0.10;;;0.10;;
22697;SDS011;11516;51.612;7.510;2023-08-06T10:51:03;0.70;;;0.20;;
22697;SDS011;11516;51.612;7.510;2023-08-06T10:53:33;0.32;;;0.32;;
22697;SDS011;11516;51.612;7.510;2023-08-06T10:55:59;0.00;;;0.00;;
22697;SDS011;11516;51.612;7.510;2023-08-06T10:58:25;0.00;;;0.00;;
22697;SDS011;11516;51.612;7.510;2023-08-06T11:00:51;4.40;;;0.35;;
22697;SDS011;11516;51.612;7.510;2023-08-06T11:03:16;0.20;;;0.20;;
22697;SDS011;11516;51.612;7.510;2023-08-06T11:05:48;0.90;;;0.50;;
22697;SDS011;11516;51.612;7.510;2023-08-06T11:08:22;0.10;;;0.10;;
22697;SDS011;11516;51.612;7.510;2023-08-06T11:10:50;0.30;;;0.30;;
22697;SDS011;11516;51.612;7.510;2023-08-06T11:13:18;0.10;;;0.10;;
22697;SDS011;11516;51.612;7.510;2023-08-06T11:15:45;0.10;;;0.10;;
22697;SDS011;11516;51.612;7.510;2023-08-06T11:18:10;0.10;;;0.10;;
22697;SDS011;11516;51.612;7.510;2023-08-06T11:20:36;0.60;;;0.60;;
22697;SDS011;11516;51.612;7.510;2023-08-06T11:23:03;7.43;;;4.25;;
22697;SDS011;11516;51.612;7.510;2023-08-06T11:25:29;6.32;;;4.30;;
22697;SDS011;11516;51.612;7.510;2023-08-06T11:27:55;9.80;;;4.00;;
22697;SDS011;11516;51.612;7.510;2023-08-06T11:30:20;6.07;;;4.30;;
22697;SDS011;11516;51.612;7.510;2023-08-06T11:32:46;7.00;;;4.37;;
22697;SDS011;11516;51.612;7.510;2023-08-06T11:35:13;5.03;;;4.32;;
22697;SDS011;11516;51.612;7.510;2023-08-06T11:37:40;5.32;;;3.65;;
22697;SDS011;11516;51.612;7.510;2023-08-06T11:40:09;5.45;;;3.80;;
22697;SDS011;11516;51.612;7.510;2023-08-06T11:42:36;5.57;;;4.10;;
22697;SDS011;11516;51.612;7.510;2023-08-06T11:45:04;5.22;;;3.85;;
22697;SDS011;11516;51.612;7.510;2023-08-06T11:47:30;4.72;;;3.40;;
22697;SDS011;11516;51.612;7.510;2023-08-06T11:49:56;3.72;;;3.33;;
22697;SDS011;11516;51.612;7.510;2023-08-06T11:52:23;4.20;;;3.50;;
22697;SDS011;11516;51.612;7.510;2023-08-06T11:55:04;4.15;;;3.40;;
22697;SDS011;11516;51.612;7.510;2023-08-06T11:57:33;4.65;;;3.47;;
22697;SDS011;11516;51.612;7.510;2023-08-06T12:00:06;4.05;;;3.40;;
22697;SDS011;11516;51.612;7.510;2023-08-06T12:02:34;3.58;;;3.05;;
22697;SDS011;11516;51.612;7.510;2023-08-06T12:05:09;3.40;;;3.10;;
22697;SDS011;11516;51.612;7.510;2023-08-06T12:07:37;3.22;;;2.63;;
22697;SDS011;11516;51.612;7.510;2023-08-06T12:10:03;2.78;;;2.53;;
22697;SDS011;11516;51.612;7.510;2023-08-06T12:12:29;3.78;;;2.40;;
22697;SDS011;11516;51.612;7.510;2023-08-06T12:14:55;4.37;;;2.30;;
22697;SDS011;11516;51.612;7.510;2023-08-06T12:17:21;3.10;;;2.30;;
22697;SDS011;11516;51.612;7.510;2023-08-06T12:19:47;3.65;;;2.85;;
22697;SDS011;11516;51.612;7.510;2023-08-06T12:22:13;2.70;;;2.50;;
22697;SDS011;11516;51.612;7.510;2023-08-06T12:24:42;2.33;;;2.10;;
22697;SDS011;11516;51.612;7.510;2023-08-06T12:27:09;2.80;;;2.08;;
22697;SDS011;11516;51.612;7.510;2023-08-06T12:29:35;3.30;;;1.80;;
22697;SDS011;11516;51.612;7.510;2023-08-06T12:32:03;2.15;;;1.80;;
22697;SDS011;11516;51.612;7.510;2023-08-06T12:34:29;3.70;;;2.10;;
22697;SDS011;11516;51.612;7.510;2023-08-06T12:36:54;2.40;;;2.20;;
22697;SDS011;11516;51.612;7.510;2023-08-06T12:39:20;2.50;;;2.30;;
22697;SDS011;11516;51.612;7.510;2023-08-06T12:41:45;2.27;;;2.10;;
22697;SDS011;11516;51.612;7.510;2023-08-06T12:44:14;2.40;;;2.20;;
22697;SDS011;11516;51.612;7.510;2023-08-06T12:46:39;3.25;;;2.95;;
22697;SDS011;11516;51.612;7.510;2023-08-06T12:49:05;5.03;;;3.87;;
22697;SDS011;11516;51.612;7.510;2023-08-06T12:51:31;6.13;;;4.87;;
22697;SDS011;11516;51.612;7.510;2023-08-06T12:53:58;6.77;;;6.10;;
22697;SDS011;11516;51.612;7.510;2023-08-06T12:56:25;8.23;;;7.18;;
22697;SDS011;11516;51.612;7.510;2023-08-06T12:58:51;8.53;;;7.73;;
22697;SDS011;11516;51.612;7.510;2023-08-06T13:01:16;10.70;;;8.70;;
22697;SDS011;11516;51.612;7.510;2023-08-06T13:03:41;8.17;;;7.37;;
22697;SDS011;11516;51.612;7.510;2023-08-06T13:06:08;10.30;;;8.32;;
22697;SDS011;11516;51.612;7.510;2023-08-06T13:08:34;7.20;;;6.43;;
22697;SDS011;11516;51.612;7.510;2023-08-06T13:11:00;0.10;;;0.10;;
22697;SDS011;11516;51.612;7.510;2023-08-06T13:13:26;0.25;;;0.25;;
22697;SDS011;11516;51.612;7.510;2023-08-06T13:15:52;0.30;;;0.30;;
22697;SDS011;11516;51.612;7.510;2023-08-06T13:18:17;0.38;;;0.38;;
22697;SDS011;11516;51.612;7.510;2023-08-06T13:20:43;0.20;;;0.20;;
22697;SDS011;11516;51.612;7.510;2023-08-06T13:23:09;0.40;;;0.40;;
22697;SDS011;11516;51.612;7.510;2023-08-06T13:25:34;0.20;;;0.20;;
22697;SDS011;11516;51.612;7.510;2023-08-06T13:28:05;0.35;;;0.35;;
22697;SDS011;11516;51.612;7.510;2023-08-06T13:30:30;0.00;;;0.00;;
22697;SDS011;11516;51.612;7.510;2023-08-06T13:32:56;0.40;;;0.40;;
22697;SDS011;11516;51.612;7.510;2023-08-06T13:35:22;0.20;;;0.20;;
22697;SDS011;11516;51.612;7.510;2023-08-06T13:37:48;0.10;;;0.10;;
22697;SDS011;11516;51.612;7.510;2023-08-06T13:40:14;0.25;;;0.10;;
22697;SDS011;11516;51.612;7.510;2023-08-06T13:42:40;0.90;;;0.20;;
22697;SDS011;11516;51.612;7.510;2023-08-06T13:45:06;0.30;;;0.20;;
22697;SDS011;11516;51.612;7.510;2023-08-06T13:47:32;0.10;;;0.10;;
22697;SDS011;11516;51.612;7.510;2023-08-06T13:49:57;0.00;;;0.00;;
22697;SDS011;11516;51.612;7.510;2023-08-06T13:52:24;0.00;;;0.00;;
22697;SDS011;11516;51.612;7.510;2023-08-06T13:54:51;0.10;;;0.10;;
22697;SDS011;11516;51.612;7.510;2023-08-06T13:57:16;0.00;;;0.00;;
22697;SDS011;11516;51.612;7.510;2023-08-06T13:59:42;0.10;;;0.10;;
22697;SDS011;11516;51.612;7.510;2023-08-06T14:02:08;0.17;;;0.17;;
22697;SDS011;11516;51.612;7.510;2023-08-06T14:04:34;0.00;;;0.00;;
22697;SDS011;11516;51.612;7.510;2023-08-06T14:07:00;0.20;;;0.20;;
22697;SDS011;11516;51.612;7.510;2023-08-06T14:09:26;0.00;;;0.00;;
22697;SDS011;11516;51.612;7.510;2023-08-06T14:11:51;0.00;;;0.00;;
22697;SDS011;11516;51.612;7.510;2023-08-06T14:14:17;0.00;;;0.00;;
22697;SDS011;11516;51.612;7.510;2023-08-06T14:16:53;0.00;;;0.00;;
22697;SDS011;11516;51.612;7.510;2023-08-06T14:19:19;0.00;;;0.00;;
22697;SDS011;11516;51.612;7.510;2023-08-06T14:21:45;0.60;;;0.10;;
22697;SDS011;11516;51.612;7.510;2023-08-06T14:24:10;0.00;;;0.00;;
22697;SDS011;11516;51.612;7.510;2023-08-06T14:26:36;0.03;;;0.03;;
22697;SDS011;11516;51.612;7.510;2023-08-06T14:29:02;0.10;;;0.10;;
22697;SDS011;11516;51.612;7.510;2023-08-06T14:31:27;0.00;;;0.00;;
22697;SDS011;11516;51.612;7.510;2023-08-06T14:33:53;0.00;;;0.00;;
22697;SDS011;11516;51.612;7.510;2023-08-06T14:36:19;0.30;;;0.30;;
22697;SDS011;11516;51.612;7.510;2023-08-06T14:38:44;0.20;;;0.20;;
22697;SDS011;11516;51.612;7.510;2023-08-06T14:41:10;0.00;;;0.00;;
22697;SDS011;11516;51.612;7.510;2023-08-06T14:43:36;1.00;;;0.50;;
22697;SDS011;11516;51.612;7.510;2023-08-06T14:46:01;0.00;;;0.00;;
22697;SDS011;11516;51.612;7.510;2023-08-06T14:48:28;0.00;;;0.00;;
22697;SDS011;11516;51.612;7.510;2023-08-06T14:50:54;0.20;;;0.20;;
22697;SDS011;11516;51.612;7.510;2023-08-06T14:53:20;0.20;;;0.20;;
22697;SDS011;11516;51.612;7.510;2023-08-06T14:55:45;0.45;;;0.25;;
22697;SDS011;11516;51.612;7.510;2023-08-06T14:58:11;1.90;;;0.60;;
22697;SDS011;11516;51.612;7.510;2023-08-06T15:00:39;0.13;;;0.13;;
22697;SDS011;11516;51.612;7.510;2023-08-06T15:03:04;0.10;;;0.10;;